sensor_id;sensor_type;location;lat;lon;timestamp;P1;durP1;ratioP1;P2;durP2;ratioP2
21833;SDS011;11079;51.092;3.458;2023-03-14T00:01:08;7.65;;;1.50;;
21833;SDS011;11079;51.092;3.458;2023-03-14T00:03:35;6.63;;;1.65;;
21833;SDS011;11079;51.092;3.458;2023-03-14T00:06:04;5.82;;;1.25;;
21833;SDS011;11079;51.092;3.458;2023-03-14T00:08:30;8.88;;;1.83;;
21833;SDS011;11079;51.092;3.458;2023-03-14T00:10:56;6.95;;;1.50;;
21833;SDS011;11079;51.092;3.458;2023-03-14T00:13:25;8.02;;;1.70;;
21833;SDS011;11079;51.092;3.458;2023-03-14T00:15:50;6.63;;;1.92;;
21833;SDS011;11079;51.092;3.458;2023-03-14T00:18:16;6.82;;;1.35;;
21833;SDS011;11079;51.092;3.458;2023-03-14T00:20:41;8.35;;;2.33;;
21833;SDS011;11079;51.092;3.458;2023-03-14T00:23:07;5.50;;;1.60;;
21833;SDS011;11079;51.092;3.458;2023-03-14T00:25:33;5.50;;;1.65;;
21833;SDS011;11079;51.092;3.458;2023-03-14T00:27:59;7.47;;;2.22;;
21833;SDS011;11079;51.092;3.458;2023-03-14T00:30:25;7.28;;;1.60;;
21833;SDS011;11079;51.092;3.458;2023-03-14T00:32:51;7.07;;;2.45;;
21833;SDS011;11079;51.092;3.458;2023-03-14T00:35:16;6.72;;;1.77;;
21833;SDS011;11079;51.092;3.458;2023-03-14T00:37:42;8.70;;;1.92;;
21833;SDS011;11079;51.092;3.458;2023-03-14T00:40:08;9.02;;;1.73;;
21833;SDS011;11079;51.092;3.458;2023-03-14T00:42:34;8.55;;;2.15;;
21833;SDS011;11079;51.092;3.458;2023-03-14T00:45:00;8.77;;;2.45;;
21833;SDS011;11079;51.092;3.458;2023-03-14T00:47:25;12.82;;;2.10;;
21833;SDS011;11079;51.092;3.458;2023-03-14T00:49:51;7.13;;;2.10;;
21833;SDS011;11079;51.092;3.458;2023-03-14T00:52:16;7.13;;;2.47;;
21833;SDS011;11079;51.092;3.458;2023-03-14T00:54:42;9.85;;;2.58;;
21833;SDS011;11079;51.092;3.458;2023-03-14T00:57:08;7.90;;;2.42;;
21833;SDS011;11079;51.092;3.458;2023-03-14T00:59:33;8.40;;;2.10;;
21833;SDS011;11079;51.092;3.458;2023-03-14T01:01:59;5.80;;;2.03;;
21833;SDS011;11079;51.092;3.458;2023-03-14T01:04:25;8.18;;;2.03;;
21833;SDS011;11079;51.092;3.458;2023-03-14T01:06:50;10.57;;;2.15;;
21833;SDS011;11079;51.092;3.458;2023-03-14T01:09:16;10.75;;;2.40;;
21833;SDS011;11079;51.092;3.458;2023-03-14T01:11:43;15.75;;;2.50;;
21833;SDS011;11079;51.092;3.458;2023-03-14T01:14:11;14.68;;;2.85;;
21833;SDS011;11079;51.092;3.458;2023-03-14T01:16:37;9.07;;;2.40;;
21833;SDS011;11079;51.092;3.458;2023-03-14T01:19:04;11.65;;;3.60;;
21833;SDS011;11079;51.092;3.458;2023-03-14T01:21:32;11.50;;;2.67;;
21833;SDS011;11079;51.092;3.458;2023-03-14T01:24:00;10.05;;;2.10;;
21833;SDS011;11079;51.092;3.458;2023-03-14T01:26:27;9.55;;;1.90;;
21833;SDS011;11079;51.092;3.458;2023-03-14T01:28:56;8.93;;;3.10;;
21833;SDS011;11079;51.092;3.458;2023-03-14T01:31:22;6.78;;;1.70;;
21833;SDS011;11079;51.092;3.458;2023-03-14T01:33:48;10.25;;;2.15;;
21833;SDS011;11079;51.092;3.458;2023-03-14T01:36:14;9.27;;;2.05;;
21833;SDS011;11079;51.092;3.458;2023-03-14T01:38:41;13.57;;;2.75;;
21833;SDS011;11079;51.092;3.458;2023-03-14T01:41:08;11.40;;;2.25;;
21833;SDS011;11079;51.092;3.458;2023-03-14T01:43:38;13.68;;;2.28;;
21833;SDS011;11079;51.092;3.458;2023-03-14T01:48:42;9.93;;;2.28;;
21833;SDS011;11079;51.092;3.458;2023-03-14T01:51:14;8.32;;;2.22;;
21833;SDS011;11079;51.092;3.458;2023-03-14T01:53:46;9.48;;;2.15;;
21833;SDS011;11079;51.092;3.458;2023-03-14T01:56:15;6.32;;;2.03;;
21833;SDS011;11079;51.092;3.458;2023-03-14T01:58:44;6.38;;;1.80;;
21833;SDS011;11079;51.092;3.458;2023-03-14T02:01:13;6.40;;;2.03;;
21833;SDS011;11079;51.092;3.458;2023-03-14T02:03:53;8.23;;;2.47;;
21833;SDS011;11079;51.092;3.458;2023-03-14T02:06:22;7.93;;;1.83;;
21833;SDS011;11079;51.092;3.458;2023-03-14T02:08:50;5.68;;;1.75;;
21833;SDS011;11079;51.092;3.458;2023-03-14T02:11:17;8.48;;;2.03;;
21833;SDS011;11079;51.092;3.458;2023-03-14T02:13:43;6.68;;;1.50;;
21833;SDS011;11079;51.092;3.458;2023-03-14T02:16:09;5.28;;;1.77;;
21833;SDS011;11079;51.092;3.458;2023-03-14T02:18:35;8.30;;;2.15;;
21833;SDS011;11079;51.092;3.458;2023-03-14T02:27:00;6.10;;;1.33;;
21833;SDS011;11079;51.092;3.458;2023-03-14T02:29:25;6.47;;;1.42;;
21833;SDS011;11079;51.092;3.458;2023-03-14T02:31:52;4.50;;;1.13;;
21833;SDS011;11079;51.092;3.458;2023-03-14T02:34:18;4.97;;;1.38;;
21833;SDS011;11079;51.092;3.458;2023-03-14T02:36:44;4.45;;;1.20;;
21833;SDS011;11079;51.092;3.458;2023-03-14T02:39:19;2.88;;;1.00;;
21833;SDS011;11079;51.092;3.458;2023-03-14T02:41:52;3.03;;;1.00;;
21833;SDS011;11079;51.092;3.458;2023-03-14T02:44:17;2.95;;;0.93;;
21833;SDS011;11079;51.092;3.458;2023-03-14T02:46:43;5.28;;;1.17;;
21833;SDS011;11079;51.092;3.458;2023-03-14T02:49:10;2.75;;;1.27;;
21833;SDS011;11079;51.092;3.458;2023-03-14T02:51:38;6.10;;;1.20;;
21833;SDS011;11079;51.092;3.458;2023-03-14T02:54:06;1.92;;;1.00;;
21833;SDS011;11079;51.092;3.458;2023-03-14T02:56:32;4.90;;;1.10;;
21833;SDS011;11079;51.092;3.458;2023-03-14T02:58:58;2.13;;;1.25;;
21833;SDS011;11079;51.092;3.458;2023-03-14T03:01:24;3.85;;;1.70;;
21833;SDS011;11079;51.092;3.458;2023-03-14T03:03:50;6.30;;;2.33;;
21833;SDS011;11079;51.092;3.458;2023-03-14T03:06:15;4.50;;;2.20;;
21833;SDS011;11079;51.092;3.458;2023-03-14T03:08:41;3.75;;;1.73;;
21833;SDS011;11079;51.092;3.458;2023-03-14T03:11:07;6.20;;;1.88;;
21833;SDS011;11079;51.092;3.458;2023-03-14T03:13:32;3.40;;;1.63;;
21833;SDS011;11079;51.092;3.458;2023-03-14T03:15:59;4.30;;;1.77;;
21833;SDS011;11079;51.092;3.458;2023-03-14T03:18:25;4.57;;;1.63;;
21833;SDS011;11079;51.092;3.458;2023-03-14T03:20:51;4.18;;;1.83;;
21833;SDS011;11079;51.092;3.458;2023-03-14T03:23:16;4.38;;;1.90;;
21833;SDS011;11079;51.092;3.458;2023-03-14T03:25:46;3.50;;;1.60;;
21833;SDS011;11079;51.092;3.458;2023-03-14T03:28:13;4.50;;;1.90;;
21833;SDS011;11079;51.092;3.458;2023-03-14T03:30:39;4.60;;;1.55;;
21833;SDS011;11079;51.092;3.458;2023-03-14T03:33:05;4.30;;;1.67;;
21833;SDS011;11079;51.092;3.458;2023-03-14T03:35:31;4.95;;;1.60;;
21833;SDS011;11079;51.092;3.458;2023-03-14T03:37:57;4.22;;;1.33;;
21833;SDS011;11079;51.092;3.458;2023-03-14T03:40:23;5.18;;;1.45;;
21833;SDS011;11079;51.092;3.458;2023-03-14T03:42:49;3.15;;;1.50;;
21833;SDS011;11079;51.092;3.458;2023-03-14T03:45:14;3.67;;;1.85;;
21833;SDS011;11079;51.092;3.458;2023-03-14T03:47:40;4.78;;;2.03;;
21833;SDS011;11079;51.092;3.458;2023-03-14T03:50:06;3.63;;;1.30;;
21833;SDS011;11079;51.092;3.458;2023-03-14T03:52:32;4.05;;;2.58;;
21833;SDS011;11079;51.092;3.458;2023-03-14T03:54:57;3.10;;;1.60;;
21833;SDS011;11079;51.092;3.458;2023-03-14T03:57:27;7.78;;;2.28;;
21833;SDS011;11079;51.092;3.458;2023-03-14T03:59:52;3.67;;;2.22;;
21833;SDS011;11079;51.092;3.458;2023-03-14T04:02:18;5.70;;;3.03;;
21833;SDS011;11079;51.092;3.458;2023-03-14T04:04:43;4.13;;;2.25;;
21833;SDS011;11079;51.092;3.458;2023-03-14T04:07:09;4.75;;;2.40;;
21833;SDS011;11079;51.092;3.458;2023-03-14T04:09:36;6.53;;;3.03;;
21833;SDS011;11079;51.092;3.458;2023-03-14T04:12:03;4.63;;;2.30;;
21833;SDS011;11079;51.092;3.458;2023-03-14T04:14:28;6.97;;;2.50;;
21833;SDS011;11079;51.092;3.458;2023-03-14T04:16:54;6.15;;;2.92;;
21833;SDS011;11079;51.092;3.458;2023-03-14T04:19:20;6.85;;;2.63;;
21833;SDS011;11079;51.092;3.458;2023-03-14T04:21:45;6.50;;;3.85;;
21833;SDS011;11079;51.092;3.458;2023-03-14T04:24:12;9.00;;;3.13;;
21833;SDS011;11079;51.092;3.458;2023-03-14T04:26:38;7.40;;;3.10;;
21833;SDS011;11079;51.092;3.458;2023-03-14T04:29:03;4.68;;;2.80;;
21833;SDS011;11079;51.092;3.458;2023-03-14T04:31:29;5.47;;;3.53;;
21833;SDS011;11079;51.092;3.458;2023-03-14T04:33:55;8.05;;;3.80;;
21833;SDS011;11079;51.092;3.458;2023-03-14T04:36:20;7.28;;;3.47;;
21833;SDS011;11079;51.092;3.458;2023-03-14T04:38:46;6.05;;;2.92;;
21833;SDS011;11079;51.092;3.458;2023-03-14T04:41:12;6.00;;;2.95;;
21833;SDS011;11079;51.092;3.458;2023-03-14T04:43:37;3.55;;;2.25;;
21833;SDS011;11079;51.092;3.458;2023-03-14T04:46:03;2.63;;;1.95;;
21833;SDS011;11079;51.092;3.458;2023-03-14T04:48:29;2.83;;;1.50;;
21833;SDS011;11079;51.092;3.458;2023-03-14T04:50:55;4.35;;;1.95;;
21833;SDS011;11079;51.092;3.458;2023-03-14T04:53:21;4.80;;;1.92;;
21833;SDS011;11079;51.092;3.458;2023-03-14T04:55:50;3.80;;;1.55;;
21833;SDS011;11079;51.092;3.458;2023-03-14T04:58:17;3.13;;;1.45;;
21833;SDS011;11079;51.092;3.458;2023-03-14T05:00:47;4.55;;;2.13;;
21833;SDS011;11079;51.092;3.458;2023-03-14T05:03:16;4.18;;;1.50;;
21833;SDS011;11079;51.092;3.458;2023-03-14T05:05:45;3.55;;;1.90;;
21833;SDS011;11079;51.092;3.458;2023-03-14T05:08:12;4.65;;;1.75;;
21833;SDS011;11079;51.092;3.458;2023-03-14T05:11:20;5.25;;;1.83;;
21833;SDS011;11079;51.092;3.458;2023-03-14T05:34:07;9.20;;;3.58;;
21833;SDS011;11079;51.092;3.458;2023-03-14T05:36:40;4.63;;;2.95;;
21833;SDS011;11079;51.092;3.458;2023-03-14T05:49:34;6.57;;;3.00;;
21833;SDS011;11079;51.092;3.458;2023-03-14T05:52:01;6.05;;;3.33;;
21833;SDS011;11079;51.092;3.458;2023-03-14T05:54:27;4.20;;;2.63;;
21833;SDS011;11079;51.092;3.458;2023-03-14T05:57:16;5.55;;;2.03;;
21833;SDS011;11079;51.092;3.458;2023-03-14T05:59:59;5.13;;;1.90;;
21833;SDS011;11079;51.092;3.458;2023-03-14T06:02:54;6.35;;;2.45;;
21833;SDS011;11079;51.092;3.458;2023-03-14T06:05:25;6.07;;;2.13;;
21833;SDS011;11079;51.092;3.458;2023-03-14T06:08:03;7.78;;;2.70;;
21833;SDS011;11079;51.092;3.458;2023-03-14T06:10:31;6.78;;;2.60;;
21833;SDS011;11079;51.092;3.458;2023-03-14T06:12:59;5.63;;;2.90;;
21833;SDS011;11079;51.092;3.458;2023-03-14T06:15:28;9.18;;;3.30;;
21833;SDS011;11079;51.092;3.458;2023-03-14T06:17:54;9.10;;;3.33;;
21833;SDS011;11079;51.092;3.458;2023-03-14T06:20:21;23.83;;;4.47;;
21833;SDS011;11079;51.092;3.458;2023-03-14T06:22:47;7.30;;;3.90;;
21833;SDS011;11079;51.092;3.458;2023-03-14T06:25:12;7.10;;;3.10;;
21833;SDS011;11079;51.092;3.458;2023-03-14T06:27:38;9.30;;;4.07;;
21833;SDS011;11079;51.092;3.458;2023-03-14T06:30:04;7.80;;;3.83;;
21833;SDS011;11079;51.092;3.458;2023-03-14T06:32:30;11.20;;;3.90;;
21833;SDS011;11079;51.092;3.458;2023-03-14T06:34:59;14.55;;;3.92;;
21833;SDS011;11079;51.092;3.458;2023-03-14T06:37:26;12.30;;;4.95;;
21833;SDS011;11079;51.092;3.458;2023-03-14T06:39:53;11.35;;;4.82;;
21833;SDS011;11079;51.092;3.458;2023-03-14T06:42:19;9.98;;;4.00;;
21833;SDS011;11079;51.092;3.458;2023-03-14T06:44:44;16.88;;;5.28;;
21833;SDS011;11079;51.092;3.458;2023-03-14T06:47:10;8.05;;;4.38;;
21833;SDS011;11079;51.092;3.458;2023-03-14T06:49:36;12.52;;;5.65;;
21833;SDS011;11079;51.092;3.458;2023-03-14T06:52:01;11.57;;;4.95;;
21833;SDS011;11079;51.092;3.458;2023-03-14T06:54:27;10.10;;;4.30;;
21833;SDS011;11079;51.092;3.458;2023-03-14T06:56:53;10.57;;;3.70;;
21833;SDS011;11079;51.092;3.458;2023-03-14T06:59:18;13.00;;;4.30;;
21833;SDS011;11079;51.092;3.458;2023-03-14T07:01:44;13.18;;;4.53;;
21833;SDS011;11079;51.092;3.458;2023-03-14T07:04:10;9.80;;;3.97;;
21833;SDS011;11079;51.092;3.458;2023-03-14T07:06:36;8.68;;;4.32;;
21833;SDS011;11079;51.092;3.458;2023-03-14T07:09:01;13.68;;;3.92;;
21833;SDS011;11079;51.092;3.458;2023-03-14T07:11:30;12.93;;;4.03;;
21833;SDS011;11079;51.092;3.458;2023-03-14T07:13:55;10.32;;;4.80;;
21833;SDS011;11079;51.092;3.458;2023-03-14T07:16:21;10.25;;;3.03;;
21833;SDS011;11079;51.092;3.458;2023-03-14T07:18:46;6.15;;;3.47;;
21833;SDS011;11079;51.092;3.458;2023-03-14T07:21:14;7.88;;;3.25;;
21833;SDS011;11079;51.092;3.458;2023-03-14T07:23:39;15.85;;;4.03;;
21833;SDS011;11079;51.092;3.458;2023-03-14T07:26:05;8.40;;;3.60;;
21833;SDS011;11079;51.092;3.458;2023-03-14T07:28:31;7.53;;;3.10;;
21833;SDS011;11079;51.092;3.458;2023-03-14T07:30:57;3.00;;;2.20;;
21833;SDS011;11079;51.092;3.458;2023-03-14T07:33:22;0.45;;;0.45;;
21833;SDS011;11079;51.092;3.458;2023-03-14T07:35:48;0.52;;;0.52;;
21833;SDS011;11079;51.092;3.458;2023-03-14T07:38:15;0.20;;;0.20;;
21833;SDS011;11079;51.092;3.458;2023-03-14T07:40:41;0.68;;;0.68;;
21833;SDS011;11079;51.092;3.458;2023-03-14T07:43:07;2.20;;;0.60;;
21833;SDS011;11079;51.092;3.458;2023-03-14T07:45:33;0.30;;;0.30;;
21833;SDS011;11079;51.092;3.458;2023-03-14T07:47:58;0.30;;;0.30;;
21833;SDS011;11079;51.092;3.458;2023-03-14T07:50:25;0.22;;;0.22;;
21833;SDS011;11079;51.092;3.458;2023-03-14T07:52:50;0.55;;;0.55;;
21833;SDS011;11079;51.092;3.458;2023-03-14T07:55:16;0.20;;;0.20;;
21833;SDS011;11079;51.092;3.458;2023-03-14T07:57:42;0.20;;;0.20;;
21833;SDS011;11079;51.092;3.458;2023-03-14T08:00:08;0.30;;;0.30;;
21833;SDS011;11079;51.092;3.458;2023-03-14T08:02:34;0.30;;;0.30;;
21833;SDS011;11079;51.092;3.458;2023-03-14T08:05:02;0.30;;;0.30;;
21833;SDS011;11079;51.092;3.458;2023-03-14T08:07:28;0.20;;;0.20;;
21833;SDS011;11079;51.092;3.458;2023-03-14T08:09:54;0.85;;;0.85;;
21833;SDS011;11079;51.092;3.458;2023-03-14T08:12:20;0.98;;;0.98;;
21833;SDS011;11079;51.092;3.458;2023-03-14T08:14:45;0.32;;;0.32;;
21833;SDS011;11079;51.092;3.458;2023-03-14T08:17:11;0.20;;;0.20;;
21833;SDS011;11079;51.092;3.458;2023-03-14T08:19:37;0.65;;;0.65;;
21833;SDS011;11079;51.092;3.458;2023-03-14T08:22:03;0.60;;;0.60;;
21833;SDS011;11079;51.092;3.458;2023-03-14T08:24:29;0.30;;;0.30;;
21833;SDS011;11079;51.092;3.458;2023-03-14T08:26:55;0.35;;;0.35;;
21833;SDS011;11079;51.092;3.458;2023-03-14T08:29:20;0.30;;;0.30;;
21833;SDS011;11079;51.092;3.458;2023-03-14T08:31:46;0.20;;;0.20;;
21833;SDS011;11079;51.092;3.458;2023-03-14T08:34:13;3.03;;;2.50;;
21833;SDS011;11079;51.092;3.458;2023-03-14T08:36:40;0.30;;;0.30;;
21833;SDS011;11079;51.092;3.458;2023-03-14T08:39:05;0.40;;;0.40;;
21833;SDS011;11079;51.092;3.458;2023-03-14T08:41:32;0.30;;;0.30;;
21833;SDS011;11079;51.092;3.458;2023-03-14T08:43:58;0.95;;;0.95;;
21833;SDS011;11079;51.092;3.458;2023-03-14T08:46:24;1.42;;;0.85;;
21833;SDS011;11079;51.092;3.458;2023-03-14T08:48:49;0.38;;;0.38;;
21833;SDS011;11079;51.092;3.458;2023-03-14T08:51:15;1.52;;;0.55;;
21833;SDS011;11079;51.092;3.458;2023-03-14T08:53:42;1.55;;;1.13;;
21833;SDS011;11079;51.092;3.458;2023-03-14T08:56:08;0.35;;;0.35;;
21833;SDS011;11079;51.092;3.458;2023-03-14T08:58:35;0.30;;;0.30;;
21833;SDS011;11079;51.092;3.458;2023-03-14T09:01:03;0.22;;;0.22;;
21833;SDS011;11079;51.092;3.458;2023-03-14T09:03:34;0.40;;;0.40;;
21833;SDS011;11079;51.092;3.458;2023-03-14T09:06:03;0.30;;;0.30;;
21833;SDS011;11079;51.092;3.458;2023-03-14T09:08:30;0.52;;;0.52;;
21833;SDS011;11079;51.092;3.458;2023-03-14T09:10:56;0.40;;;0.40;;
21833;SDS011;11079;51.092;3.458;2023-03-14T09:13:22;0.20;;;0.20;;
21833;SDS011;11079;51.092;3.458;2023-03-14T09:15:53;0.40;;;0.40;;
21833;SDS011;11079;51.092;3.458;2023-03-14T09:18:20;1.45;;;0.82;;
21833;SDS011;11079;51.092;3.458;2023-03-14T09:20:46;0.30;;;0.30;;
21833;SDS011;11079;51.092;3.458;2023-03-14T09:23:11;1.10;;;1.10;;
21833;SDS011;11079;51.092;3.458;2023-03-14T09:25:37;6.80;;;2.53;;
21833;SDS011;11079;51.092;3.458;2023-03-14T09:28:03;6.28;;;2.30;;
21833;SDS011;11079;51.092;3.458;2023-03-14T09:30:29;13.30;;;2.45;;
21833;SDS011;11079;51.092;3.458;2023-03-14T09:32:56;6.88;;;2.30;;
21833;SDS011;11079;51.092;3.458;2023-03-14T09:35:22;5.82;;;2.15;;
21833;SDS011;11079;51.092;3.458;2023-03-14T09:37:48;11.18;;;2.92;;
21833;SDS011;11079;51.092;3.458;2023-03-14T09:40:15;11.55;;;2.05;;
21833;SDS011;11079;51.092;3.458;2023-03-14T09:42:41;8.68;;;2.92;;
21833;SDS011;11079;51.092;3.458;2023-03-14T09:45:11;7.25;;;1.90;;
21833;SDS011;11079;51.092;3.458;2023-03-14T09:47:42;9.65;;;2.58;;
21833;SDS011;11079;51.092;3.458;2023-03-14T09:50:11;7.65;;;2.78;;
21833;SDS011;11079;51.092;3.458;2023-03-14T09:52:39;7.35;;;1.98;;
21833;SDS011;11079;51.092;3.458;2023-03-14T09:55:27;1.88;;;1.10;;
21833;SDS011;11079;51.092;3.458;2023-03-14T09:58:00;5.00;;;1.60;;
21833;SDS011;11079;51.092;3.458;2023-03-14T10:00:30;5.35;;;1.80;;
21833;SDS011;11079;51.092;3.458;2023-03-14T10:03:00;3.13;;;1.55;;
21833;SDS011;11079;51.092;3.458;2023-03-14T10:05:31;5.40;;;1.77;;
21833;SDS011;11079;51.092;3.458;2023-03-14T10:07:57;3.53;;;1.73;;
21833;SDS011;11079;51.092;3.458;2023-03-14T10:10:24;5.85;;;1.83;;
21833;SDS011;11079;51.092;3.458;2023-03-14T10:12:58;5.50;;;1.65;;
21833;SDS011;11079;51.092;3.458;2023-03-14T10:15:30;8.85;;;1.83;;
21833;SDS011;11079;51.092;3.458;2023-03-14T10:18:01;5.82;;;2.05;;
21833;SDS011;11079;51.092;3.458;2023-03-14T10:25:40;8.70;;;2.10;;
21833;SDS011;11079;51.092;3.458;2023-03-14T10:28:16;7.45;;;1.92;;
21833;SDS011;11079;51.092;3.458;2023-03-14T10:30:52;6.35;;;2.08;;
21833;SDS011;11079;51.092;3.458;2023-03-14T10:33:23;5.25;;;2.30;;
21833;SDS011;11079;51.092;3.458;2023-03-14T10:38:20;5.78;;;1.80;;
21833;SDS011;11079;51.092;3.458;2023-03-14T10:40:50;3.47;;;1.52;;
21833;SDS011;11079;51.092;3.458;2023-03-14T10:46:15;4.03;;;1.55;;
21833;SDS011;11079;51.092;3.458;2023-03-14T10:48:43;6.03;;;1.73;;
21833;SDS011;11079;51.092;3.458;2023-03-14T10:56:14;11.40;;;1.98;;
21833;SDS011;11079;51.092;3.458;2023-03-14T10:58:45;7.43;;;1.60;;
21833;SDS011;11079;51.092;3.458;2023-03-14T11:09:38;7.43;;;2.30;;
21833;SDS011;11079;51.092;3.458;2023-03-14T11:12:25;6.40;;;2.10;;
21833;SDS011;11079;51.092;3.458;2023-03-14T11:14:57;9.10;;;1.92;;
21833;SDS011;11079;51.092;3.458;2023-03-14T11:17:27;7.72;;;1.77;;
21833;SDS011;11079;51.092;3.458;2023-03-14T11:23:02;7.28;;;1.83;;
21833;SDS011;11079;51.092;3.458;2023-03-14T11:30:55;12.38;;;2.60;;
21833;SDS011;11079;51.092;3.458;2023-03-14T11:36:39;18.25;;;3.10;;
21833;SDS011;11079;51.092;3.458;2023-03-14T11:39:22;7.40;;;1.75;;
21833;SDS011;11079;51.092;3.458;2023-03-14T11:41:54;7.63;;;1.95;;
21833;SDS011;11079;51.092;3.458;2023-03-14T11:44:34;12.07;;;2.63;;
21833;SDS011;11079;51.092;3.458;2023-03-14T11:47:05;11.70;;;2.88;;
21833;SDS011;11079;51.092;3.458;2023-03-14T11:53:02;8.45;;;2.22;;
21833;SDS011;11079;51.092;3.458;2023-03-14T11:55:35;14.65;;;2.65;;
21833;SDS011;11079;51.092;3.458;2023-03-14T11:58:05;11.88;;;2.33;;
21833;SDS011;11079;51.092;3.458;2023-03-14T12:00:35;16.17;;;2.80;;
21833;SDS011;11079;51.092;3.458;2023-03-14T12:11:15;13.02;;;3.08;;
21833;SDS011;11079;51.092;3.458;2023-03-14T12:13:55;20.33;;;3.25;;
21833;SDS011;11079;51.092;3.458;2023-03-14T12:16:26;8.70;;;2.17;;
21833;SDS011;11079;51.092;3.458;2023-03-14T12:18:57;14.43;;;3.13;;
21833;SDS011;11079;51.092;3.458;2023-03-14T12:22:00;13.85;;;3.30;;
21833;SDS011;11079;51.092;3.458;2023-03-14T12:24:36;18.73;;;3.55;;
21833;SDS011;11079;51.092;3.458;2023-03-14T12:27:04;18.67;;;3.45;;
21833;SDS011;11079;51.092;3.458;2023-03-14T12:29:31;18.38;;;3.83;;
21833;SDS011;11079;51.092;3.458;2023-03-14T12:34:27;16.17;;;3.75;;
21833;SDS011;11079;51.092;3.458;2023-03-14T12:36:56;21.77;;;3.45;;
21833;SDS011;11079;51.092;3.458;2023-03-14T12:39:35;18.20;;;3.53;;
21833;SDS011;11079;51.092;3.458;2023-03-14T12:45:41;19.10;;;3.95;;
21833;SDS011;11079;51.092;3.458;2023-03-14T12:50:42;10.35;;;2.20;;
21833;SDS011;11079;51.092;3.458;2023-03-14T12:56:21;10.77;;;2.40;;
21833;SDS011;11079;51.092;3.458;2023-03-14T13:01:34;9.02;;;2.40;;
21833;SDS011;11079;51.092;3.458;2023-03-14T13:04:07;9.93;;;2.58;;
21833;SDS011;11079;51.092;3.458;2023-03-14T13:12:13;11.63;;;2.45;;
21833;SDS011;11079;51.092;3.458;2023-03-14T13:14:43;17.10;;;2.88;;
21833;SDS011;11079;51.092;3.458;2023-03-14T13:17:12;17.08;;;2.72;;
21833;SDS011;11079;51.092;3.458;2023-03-14T13:19:38;16.55;;;3.00;;
21833;SDS011;11079;51.092;3.458;2023-03-14T13:22:06;16.35;;;3.40;;
21833;SDS011;11079;51.092;3.458;2023-03-14T13:24:41;12.00;;;2.58;;
21833;SDS011;11079;51.092;3.458;2023-03-14T13:27:17;13.70;;;2.22;;
21833;SDS011;11079;51.092;3.458;2023-03-14T13:29:45;14.20;;;3.08;;
21833;SDS011;11079;51.092;3.458;2023-03-14T13:32:19;9.68;;;2.75;;
21833;SDS011;11079;51.092;3.458;2023-03-14T13:34:46;8.95;;;2.00;;
21833;SDS011;11079;51.092;3.458;2023-03-14T13:39:48;9.30;;;2.30;;
21833;SDS011;11079;51.092;3.458;2023-03-14T13:42:16;7.28;;;1.33;;
21833;SDS011;11079;51.092;3.458;2023-03-14T13:44:42;7.25;;;1.52;;
21833;SDS011;11079;51.092;3.458;2023-03-14T13:47:15;5.70;;;1.40;;
21833;SDS011;11079;51.092;3.458;2023-03-14T13:49:43;3.63;;;1.30;;
21833;SDS011;11079;51.092;3.458;2023-03-14T13:52:22;6.43;;;1.23;;
21833;SDS011;11079;51.092;3.458;2023-03-14T13:54:57;4.93;;;1.30;;
21833;SDS011;11079;51.092;3.458;2023-03-14T13:57:24;6.63;;;1.73;;
21833;SDS011;11079;51.092;3.458;2023-03-14T14:00:00;7.60;;;1.20;;
21833;SDS011;11079;51.092;3.458;2023-03-14T14:02:32;5.15;;;1.20;;
21833;SDS011;11079;51.092;3.458;2023-03-14T14:04:59;2.80;;;0.80;;
21833;SDS011;11079;51.092;3.458;2023-03-14T14:07:25;2.17;;;0.82;;
21833;SDS011;11079;51.092;3.458;2023-03-14T14:09:52;4.72;;;0.80;;
21833;SDS011;11079;51.092;3.458;2023-03-14T14:12:21;3.33;;;0.93;;
21833;SDS011;11079;51.092;3.458;2023-03-14T14:14:58;3.35;;;0.90;;
21833;SDS011;11079;51.092;3.458;2023-03-14T14:17:56;2.42;;;0.98;;
21833;SDS011;11079;51.092;3.458;2023-03-14T14:20:29;5.78;;;1.02;;
21833;SDS011;11079;51.092;3.458;2023-03-14T14:23:07;2.92;;;0.70;;
21833;SDS011;11079;51.092;3.458;2023-03-14T14:25:35;2.85;;;0.77;;
21833;SDS011;11079;51.092;3.458;2023-03-14T14:28:14;1.10;;;0.40;;
21833;SDS011;11079;51.092;3.458;2023-03-14T14:33:39;4.47;;;0.90;;
21833;SDS011;11079;51.092;3.458;2023-03-14T14:36:17;2.67;;;0.68;;
21833;SDS011;11079;51.092;3.458;2023-03-14T14:38:49;5.10;;;0.93;;
21833;SDS011;11079;51.092;3.458;2023-03-14T14:41:29;2.22;;;0.80;;
21833;SDS011;11079;51.092;3.458;2023-03-14T14:43:57;5.25;;;1.08;;
21833;SDS011;11079;51.092;3.458;2023-03-14T14:46:26;1.85;;;0.65;;
21833;SDS011;11079;51.092;3.458;2023-03-14T14:48:56;3.75;;;0.90;;
21833;SDS011;11079;51.092;3.458;2023-03-14T14:51:27;2.15;;;0.80;;
21833;SDS011;11079;51.092;3.458;2023-03-14T14:54:02;2.67;;;0.80;;
21833;SDS011;11079;51.092;3.458;2023-03-14T14:56:49;2.97;;;0.93;;
21833;SDS011;11079;51.092;3.458;2023-03-14T14:59:23;3.33;;;1.00;;
21833;SDS011;11079;51.092;3.458;2023-03-14T15:01:55;5.18;;;1.25;;
21833;SDS011;11079;51.092;3.458;2023-03-14T15:04:25;3.38;;;1.15;;
21833;SDS011;11079;51.092;3.458;2023-03-14T15:06:51;3.33;;;1.05;;
21833;SDS011;11079;51.092;3.458;2023-03-14T15:09:17;5.85;;;1.10;;
21833;SDS011;11079;51.092;3.458;2023-03-14T15:11:45;4.03;;;1.40;;
21833;SDS011;11079;51.092;3.458;2023-03-14T15:14:11;5.78;;;1.58;;
21833;SDS011;11079;51.092;3.458;2023-03-14T15:16:37;5.18;;;2.50;;
21833;SDS011;11079;51.092;3.458;2023-03-14T15:19:09;9.05;;;2.30;;
21833;SDS011;11079;51.092;3.458;2023-03-14T15:21:46;7.03;;;1.85;;
21833;SDS011;11079;51.092;3.458;2023-03-14T15:24:11;8.38;;;2.35;;
21833;SDS011;11079;51.092;3.458;2023-03-14T15:26:37;13.05;;;2.65;;
21833;SDS011;11079;51.092;3.458;2023-03-14T15:29:03;9.30;;;2.03;;
21833;SDS011;11079;51.092;3.458;2023-03-14T15:31:32;8.55;;;1.88;;
21833;SDS011;11079;51.092;3.458;2023-03-14T15:33:58;11.02;;;2.60;;
21833;SDS011;11079;51.092;3.458;2023-03-14T15:36:25;4.45;;;1.75;;
21833;SDS011;11079;51.092;3.458;2023-03-14T15:38:55;12.35;;;1.85;;
21833;SDS011;11079;51.092;3.458;2023-03-14T15:41:23;10.65;;;1.95;;
21833;SDS011;11079;51.092;3.458;2023-03-14T15:43:49;5.85;;;1.67;;
21833;SDS011;11079;51.092;3.458;2023-03-14T15:46:15;7.85;;;1.80;;
21833;SDS011;11079;51.092;3.458;2023-03-14T15:48:45;7.30;;;2.38;;
21833;SDS011;11079;51.092;3.458;2023-03-14T15:51:11;6.38;;;1.77;;
21833;SDS011;11079;51.092;3.458;2023-03-14T15:53:37;9.85;;;2.83;;
21833;SDS011;11079;51.092;3.458;2023-03-14T15:56:04;9.65;;;2.13;;
21833;SDS011;11079;51.092;3.458;2023-03-14T15:58:30;7.50;;;1.63;;
21833;SDS011;11079;51.092;3.458;2023-03-14T16:00:58;6.45;;;1.40;;
21833;SDS011;11079;51.092;3.458;2023-03-14T16:03:28;8.07;;;1.98;;
21833;SDS011;11079;51.092;3.458;2023-03-14T16:05:54;5.70;;;2.03;;
21833;SDS011;11079;51.092;3.458;2023-03-14T16:08:20;5.03;;;1.58;;
21833;SDS011;11079;51.092;3.458;2023-03-14T16:10:46;7.35;;;2.15;;
21833;SDS011;11079;51.092;3.458;2023-03-14T16:13:13;6.45;;;1.70;;
21833;SDS011;11079;51.092;3.458;2023-03-14T16:15:39;6.68;;;1.85;;
21833;SDS011;11079;51.092;3.458;2023-03-14T16:18:05;11.60;;;2.00;;
21833;SDS011;11079;51.092;3.458;2023-03-14T16:20:31;8.68;;;1.88;;
21833;SDS011;11079;51.092;3.458;2023-03-14T16:22:57;8.77;;;1.63;;
21833;SDS011;11079;51.092;3.458;2023-03-14T16:25:22;10.43;;;2.28;;
21833;SDS011;11079;51.092;3.458;2023-03-14T16:27:48;8.20;;;2.10;;
21833;SDS011;11079;51.092;3.458;2023-03-14T16:30:14;7.22;;;1.58;;
21833;SDS011;11079;51.092;3.458;2023-03-14T16:32:40;8.07;;;1.95;;
21833;SDS011;11079;51.092;3.458;2023-03-14T16:35:06;11.45;;;2.13;;
21833;SDS011;11079;51.092;3.458;2023-03-14T16:37:32;9.73;;;2.03;;
21833;SDS011;11079;51.092;3.458;2023-03-14T16:39:57;6.40;;;1.77;;
21833;SDS011;11079;51.092;3.458;2023-03-14T16:42:23;9.02;;;2.10;;
21833;SDS011;11079;51.092;3.458;2023-03-14T16:44:49;9.50;;;2.22;;